Aviation Digital Data Service (ADDS)

Output produced by METARs form (1352 UTC 26 May 2018)
found at http://www.aviationweather.gov/adds/metars/
 
UATE 261330Z 02014G19MPS 7000 FEW033 27/10 Q1008 R30/0///70 TEMPO 02012G18MPS RMK QFE754/1006
TAF AMD UATE 261155Z 2612/2712 02009G15MPS 6000 SCT033 TX25/2711Z TN14/2701Z 
     TEMPO 2612/2618 02012G18MPS 3000 DRDU
       
UATT 261330Z 04012MPS 9999 OVC028CB 09/03 Q1015 R31/19//60 NOSIG RMK QFE741/0988
TAF UATT 261100Z 2612/2712 02009MPS 9999 BKN020CB TX17/2712Z TN03/2701Z 
     TEMPO 2612/2700 04014MPS 
     TEMPO 2700/2712 02014MPS
       
UAAA 261330Z VRB01MPS 9999 NSC 27/09 Q1010 R05R/CLRD65 NOSIG
TAF UAAA 261100Z 2612/2712 06005MPS 9999 SCT050CB BKN100 TX29/2709Z TN10/2701Z 
     TEMPO 2614/2624 16005MPS 3000 FU 
     BECMG 2702/2703 04006MPS 
     TEMPO 2708/2712 22006MPS BKN050CB
       
UAAA 261330Z VRB01MPS 9999 NSC 27/09 Q1010 R05R/CLRD65 NOSIG
TAF UAAA 261100Z 2612/2712 06005MPS 9999 SCT050CB BKN100 TX29/2709Z TN10/2701Z 
     TEMPO 2614/2624 16005MPS 3000 FU 
     BECMG 2702/2703 04006MPS 
     TEMPO 2708/2712 22006MPS BKN050CB
       
UAAH 261330Z 12005MPS CAVOK 28/02 Q1009 R23/0///60 NOSIG RMK QFE718/0958
UACC 261330Z 22011MPS 9999 FEW040 BKN001 28/01 Q1000 R22/0///70 TEMPO 22013G18MPS RMK QFE719/0959
TAF UACC 261100Z 2612/2712 21010G15MPS 9999 SCT030 BKN100 TX29/2612Z TN06/2712Z 
     TEMPO 2612/2615 22014G19MPS 
     TEMPO 2615/2618 36006MPS 
     BECMG 2618/2620 04010G15MPS SCT010 BKN020CB 
     TEMPO 2701/2706 05015G20MPS 
     TEMPO 2706/2712 03015G20MPS 3000 SHRA BKN007 BKN015CB
       
UACK 261330Z 02010MPS 0250 R02/0250N DZ PRFG BR OVC004 04/04 Q1007 R02/010070 NOSIG RMK QBB140 QFE731/0975
UACP 261130Z 03007MPS 9999 -SHRA BKN013 OVC026CB 05/03 Q1009 R05/2/0556 NOSIG RMK QFE745/0993
UADD 261330Z 03002MPS 9999 NSC 31/02 Q1008 R13/0///65 NOSIG RMK QFE700/0933
UAII 261330Z 20002MPS CAVOK 33/04 Q1007 R28/0///70 NOSIG RMK QFE718/0958
TAF UAII 261100Z 2612/2712 16006MPS CAVOK TX35/2709Z TN20/2701Z 
     TEMPO 2612/2615 25003G08MPS 6000 SCT050 BKN100 
     TEMPO 2615/2702 12006MPS 
     TEMPO 2702/2712 20009G14MPS 6000 SCT050CB BKN100
       
UAKD 261300Z 22008MPS 9999 BKN100 31/M05 Q1003 R22/0///65 NOSIG RMK QFE719/0959
UAKK 261330Z 22009MPS CAVOK 27/04 Q1005 R23/0///70 NOSIG RMK QFE707/0943
TAF UAKK 261100Z 2612/2712 22010MPS 9999 SCT030 BKN100 TX28/2710Z TN15/2623Z 
     TEMPO 2612/2615 22015MPS 
     BECMG 2615/2617 19010MPS 
     TEMPO 2620/2701 18014MPS 
     TEMPO 2701/2712 20018MPS
       
UAOO 261330Z 26002MPS 220V300 CAVOK 37/M06 Q1004 R23/CLRD70 NOSIG RMK QFE741/0988
UARR 261330Z 01010MPS CAVOK 14/M03 Q1022 R04/CLRD70 NOSIG RMK QFE763/1018
UASK 261330Z 14006MPS 9999 NSC 22/12 Q1013 R12/090060 NOSIG RMK QFE734/0979
UASP 261330Z 20005MPS 9999 SCT025CB BKN110 25/10 Q1001 R21/0///70 NOSIG RMK QFE740/0987
UASS 261330Z 17005MPS CAVOK 26/11 Q1009 NOSIG RMK QFE738/0984
UATE 261330Z 02014G19MPS 7000 FEW033 27/10 Q1008 R30/0///70 TEMPO 02012G18MPS RMK QFE754/1006
TAF AMD UATE 261155Z 2612/2712 02009G15MPS 6000 SCT033 TX25/2711Z TN14/2701Z 
     TEMPO 2612/2618 02012G18MPS 3000 DRDU
       
UATG 261330Z 04014G19MPS 5000 DRDU NSC 20/M00 Q1014 R32/CLRD70 NOSIG RMK QFE762/1016
TAF UATG 261102Z 2612/2712 02015G20MPS 5000 DRDU BKN033 TX22/2712Z TN10/2701Z 
     BECMG 2619/2620 03007G12MPS
       
UATT 261330Z 04012MPS 9999 OVC028CB 09/03 Q1015 R31/19//60 NOSIG RMK QFE741/0988
TAF UATT 261100Z 2612/2712 02009MPS 9999 BKN020CB TX17/2712Z TN03/2701Z 
     TEMPO 2612/2700 04014MPS 
     TEMPO 2700/2712 02014MPS
       
UAUU 261330Z 01009G14MPS 9999 OVC019CB 08/06 Q1012 R33/290054 TEMPO 02017MPS RMK QFE744/0992
UACC 261330Z 22011MPS 9999 FEW040 BKN001 28/01 Q1000 R22/0///70 TEMPO 22013G18MPS RMK QFE719/0959
TAF UACC 261100Z 2612/2712 21010G15MPS 9999 SCT030 BKN100 TX29/2612Z TN06/2712Z 
     TEMPO 2612/2615 22014G19MPS 
     TEMPO 2615/2618 36006MPS 
     BECMG 2618/2620 04010G15MPS SCT010 BKN020CB 
     TEMPO 2701/2706 05015G20MPS 
     TEMPO 2706/2712 03015G20MPS 3000 SHRA BKN007 BKN015CB
       
UATG 261330Z 04014G19MPS 5000 DRDU NSC 20/M00 Q1014 R32/CLRD70 NOSIG RMK QFE762/1016
TAF UATG 261102Z 2612/2712 02015G20MPS 5000 DRDU BKN033 TX22/2712Z TN10/2701Z 
     BECMG 2619/2620 03007G12MPS
       
UAAH 261330Z 12005MPS CAVOK 28/02 Q1009 R23/0///60 NOSIG RMK QFE718/0958
UAKK 261330Z 22009MPS CAVOK 27/04 Q1005 R23/0///70 NOSIG RMK QFE707/0943
TAF UAKK 261100Z 2612/2712 22010MPS 9999 SCT030 BKN100 TX28/2710Z TN15/2623Z 
     TEMPO 2612/2615 22015MPS 
     BECMG 2615/2617 19010MPS 
     TEMPO 2620/2701 18014MPS 
     TEMPO 2701/2712 20018MPS
       
UAUU 261330Z 01009G14MPS 9999 OVC019CB 08/06 Q1012 R33/290054 TEMPO 02017MPS RMK QFE744/0992
UASS 261330Z 17005MPS CAVOK 26/11 Q1009 NOSIG RMK QFE738/0984
UAII 261330Z 20002MPS CAVOK 33/04 Q1007 R28/0///70 NOSIG RMK QFE718/0958
TAF UAII 261100Z 2612/2712 16006MPS CAVOK TX35/2709Z TN20/2701Z 
     TEMPO 2612/2615 25003G08MPS 6000 SCT050 BKN100 
     TEMPO 2615/2702 12006MPS 
     TEMPO 2702/2712 20009G14MPS 6000 SCT050CB BKN100
       
UARR 261330Z 01010MPS CAVOK 14/M03 Q1022 R04/CLRD70 NOSIG RMK QFE763/1018
UASK 261330Z 14006MPS 9999 NSC 22/12 Q1013 R12/090060 NOSIG RMK QFE734/0979
UAKD 261300Z 22008MPS 9999 BKN100 31/M05 Q1003 R22/0///65 NOSIG RMK QFE719/0959